createdAt,value
2016-12-10T00:00:21.620Z,0
2016-12-10T00:01:02.171Z,0
2016-12-10T00:01:42.634Z,0
2016-12-10T00:02:23.117Z,0
2016-12-10T00:03:03.590Z,0
2016-12-10T00:03:44.087Z,0
2016-12-10T00:04:24.551Z,0
2016-12-10T00:05:05.030Z,0
2016-12-10T00:05:45.508Z,0
2016-12-10T00:06:26.012Z,0
2016-12-10T00:07:06.457Z,0
2016-12-10T00:07:46.911Z,0
2016-12-10T00:08:27.396Z,0
2016-12-10T00:09:07.890Z,0
2016-12-10T00:09:48.363Z,0
2016-12-10T00:10:28.836Z,0
2016-12-10T00:11:09.295Z,0
2016-12-10T00:11:49.768Z,0
2016-12-10T00:12:30.265Z,0
2016-12-10T00:13:10.740Z,0
2016-12-10T00:13:51.236Z,0
2016-12-10T00:14:31.729Z,0
2016-12-10T00:15:12.212Z,0
2016-12-10T00:15:52.708Z,0
2016-12-10T00:16:33.162Z,0
2016-12-10T00:17:13.651Z,0
2016-12-10T00:17:54.119Z,0
2016-12-10T00:18:34.589Z,0
2016-12-10T00:19:15.081Z,0
2016-12-10T00:19:55.584Z,0
2016-12-10T00:20:36.033Z,0
2016-12-10T00:21:16.500Z,0
2016-12-10T00:21:56.971Z,0
2016-12-10T00:22:37.526Z,0
2016-12-10T00:23:18.009Z,0
2016-12-10T00:23:58.458Z,0
2016-12-10T00:24:38.940Z,0
2016-12-10T00:25:19.425Z,0
2016-12-10T00:25:59.895Z,0
2016-12-10T00:26:40.374Z,0
2016-12-10T00:27:20.853Z,0
2016-12-10T00:28:01.339Z,0
2016-12-10T00:28:41.810Z,0
2016-12-10T00:29:22.309Z,0
2016-12-10T00:30:02.809Z,0
2016-12-10T00:30:43.248Z,0
2016-12-10T00:31:23.734Z,0
2016-12-10T00:32:04.169Z,0
2016-12-10T00:32:44.631Z,0
2016-12-10T00:33:25.127Z,0
2016-12-10T00:34:05.595Z,0
2016-12-10T00:34:46.051Z,0
2016-12-10T00:35:26.549Z,0
2016-12-10T00:36:07.030Z,0
2016-12-10T00:36:47.486Z,0
2016-12-10T00:37:27.997Z,0
2016-12-10T00:38:08.454Z,0
2016-12-10T00:38:48.942Z,0
2016-12-10T00:39:29.403Z,0
2016-12-10T00:40:09.905Z,0
2016-12-10T00:40:50.402Z,0
2016-12-10T00:41:30.909Z,0
2016-12-10T00:42:11.403Z,0
2016-12-10T00:42:51.873Z,0
2016-12-10T00:43:32.381Z,0
2016-12-10T00:44:12.847Z,0
2016-12-10T00:44:53.326Z,0
2016-12-10T00:45:33.821Z,0
2016-12-10T00:46:14.287Z,0
2016-12-10T00:46:54.778Z,0
2016-12-10T00:47:35.261Z,0
2016-12-10T00:48:15.738Z,0
2016-12-10T00:48:56.224Z,0
2016-12-10T00:49:36.695Z,0
2016-12-10T00:50:17.219Z,0
2016-12-10T00:50:57.708Z,0
2016-12-10T00:51:38.161Z,0
2016-12-10T00:52:18.649Z,0
2016-12-10T00:52:59.101Z,0
2016-12-10T00:53:39.553Z,0
2016-12-10T00:54:20.052Z,0
2016-12-10T00:55:00.544Z,0
2016-12-10T00:55:41.001Z,0
2016-12-10T00:56:21.465Z,0
2016-12-10T00:57:01.917Z,0
2016-12-10T00:57:42.386Z,0
2016-12-10T00:58:22.865Z,0
2016-12-10T00:59:03.376Z,0
2016-12-10T00:59:43.856Z,0
2016-12-10T01:00:24.339Z,0
2016-12-10T01:01:04.794Z,0
2016-12-10T01:01:45.311Z,0
2016-12-10T01:02:25.779Z,0
2016-12-10T01:03:06.245Z,0
2016-12-10T01:03:46.710Z,0
2016-12-10T01:04:27.197Z,0
2016-12-10T01:05:07.686Z,0
2016-12-10T01:05:48.168Z,0
2016-12-10T01:06:28.657Z,0
2016-12-10T01:07:09.141Z,0
2016-12-10T01:07:49.600Z,0
2016-12-10T01:08:30.084Z,0
2016-12-10T01:09:10.559Z,0
2016-12-10T01:09:51.052Z,0
2016-12-10T01:10:31.516Z,0
2016-12-10T01:11:12.001Z,0
2016-12-10T01:11:52.515Z,0
2016-12-10T01:12:33.004Z,0
2016-12-10T01:13:13.492Z,0
2016-12-10T01:13:53.976Z,0
2016-12-10T01:14:34.461Z,0
2016-12-10T01:15:14.940Z,0
2016-12-10T01:15:55.418Z,0
2016-12-10T01:16:35.894Z,0
2016-12-10T01:17:16.393Z,0
2016-12-10T01:17:56.839Z,0
2016-12-10T01:18:37.331Z,0
2016-12-10T01:19:17.819Z,0
2016-12-10T01:19:58.303Z,0
2016-12-10T01:20:38.761Z,0
2016-12-10T01:21:19.224Z,0
2016-12-10T01:21:59.697Z,0
2016-12-10T01:22:40.175Z,0
2016-12-10T01:23:20.671Z,0
2016-12-10T01:24:01.152Z,0
2016-12-10T01:24:41.629Z,0
2016-12-10T01:25:22.121Z,0
2016-12-10T01:26:02.611Z,0
2016-12-10T01:26:43.072Z,0
2016-12-10T01:27:23.544Z,0
2016-12-10T01:28:04.009Z,0
2016-12-10T01:28:44.473Z,0
2016-12-10T01:29:24.974Z,0
2016-12-10T01:30:05.480Z,0
2016-12-10T01:30:45.936Z,0
2016-12-10T01:31:26.436Z,0
2016-12-10T01:32:06.907Z,0
2016-12-10T01:32:47.381Z,0
2016-12-10T01:33:27.877Z,0
2016-12-10T01:34:08.349Z,0
2016-12-10T01:34:48.832Z,0
2016-12-10T01:35:29.337Z,0
2016-12-10T01:36:09.832Z,0
2016-12-10T01:36:50.312Z,0
2016-12-10T01:37:30.822Z,0
2016-12-10T01:38:11.252Z,0
2016-12-10T01:38:51.738Z,0
2016-12-10T01:39:32.267Z,0
2016-12-10T01:40:12.733Z,0
2016-12-10T01:40:53.229Z,0
2016-12-10T01:41:33.718Z,0
2016-12-10T01:42:14.192Z,0
2016-12-10T01:42:54.713Z,0
2016-12-10T01:43:35.171Z,0
2016-12-10T01:44:15.636Z,0
2016-12-10T01:44:56.131Z,0
2016-12-10T01:45:36.618Z,0
2016-12-10T01:46:17.104Z,0
2016-12-10T01:46:57.610Z,0
2016-12-10T01:47:38.083Z,0
2016-12-10T01:48:18.576Z,0
2016-12-10T01:48:59.047Z,0
2016-12-10T01:49:39.533Z,0
2016-12-10T01:50:20.038Z,0
2016-12-10T01:51:00.488Z,0
2016-12-10T01:51:40.967Z,0
2016-12-10T01:52:21.440Z,0
2016-12-10T01:53:01.925Z,0
2016-12-10T01:53:42.381Z,0
2016-12-10T01:54:22.880Z,0
2016-12-10T01:55:03.354Z,0
2016-12-10T01:55:43.836Z,0
2016-12-10T01:56:24.341Z,0
2016-12-10T01:57:04.811Z,0
2016-12-10T01:57:45.288Z,0
2016-12-10T01:58:25.773Z,0
2016-12-10T01:59:06.278Z,0
2016-12-10T01:59:46.756Z,0
2016-12-10T02:00:27.255Z,0
2016-12-10T02:01:07.752Z,0
2016-12-10T02:01:48.247Z,0
2016-12-10T02:02:28.726Z,0
2016-12-10T02:03:09.204Z,0
2016-12-10T02:03:49.668Z,0
2016-12-10T02:04:30.152Z,0
2016-12-10T02:05:10.628Z,0
2016-12-10T02:05:51.114Z,0
2016-12-10T02:06:31.624Z,0
2016-12-10T02:07:12.120Z,0
2016-12-10T02:07:52.635Z,0
2016-12-10T02:08:33.093Z,0
2016-12-10T02:09:13.598Z,0
2016-12-10T02:09:54.062Z,0
2016-12-10T02:10:34.540Z,0
2016-12-10T02:11:15.022Z,0
2016-12-10T02:11:55.489Z,0
2016-12-10T02:12:35.983Z,0
2016-12-10T02:13:16.484Z,0
2016-12-10T02:13:56.957Z,0
2016-12-10T02:14:37.441Z,0
2016-12-10T02:15:17.931Z,0
2016-12-10T02:15:58.426Z,0
2016-12-10T02:16:38.924Z,0
2016-12-10T02:17:19.393Z,0
2016-12-10T02:17:59.867Z,0
2016-12-10T02:18:40.376Z,0
2016-12-10T02:19:20.861Z,0
2016-12-10T02:20:01.336Z,0
2016-12-10T02:20:41.831Z,0
2016-12-10T02:21:22.348Z,0
2016-12-10T02:22:02.830Z,0
2016-12-10T02:22:43.287Z,0
2016-12-10T02:23:23.773Z,0
2016-12-10T02:24:04.250Z,0
2016-12-10T02:24:44.748Z,0
2016-12-10T02:25:25.190Z,0
2016-12-10T02:26:05.662Z,0
2016-12-10T02:26:46.132Z,0
2016-12-10T02:27:26.607Z,0
2016-12-10T02:28:07.065Z,0
2016-12-10T02:28:47.569Z,0
2016-12-10T02:29:28.050Z,0
2016-12-10T02:30:08.508Z,0
2016-12-10T02:30:49.007Z,0
2016-12-10T02:31:29.440Z,0
2016-12-10T02:32:09.914Z,0
2016-12-10T02:32:50.428Z,0
2016-12-10T02:33:30.914Z,0
2016-12-10T02:34:11.401Z,0
2016-12-10T02:34:51.883Z,0
2016-12-10T02:35:32.426Z,0
2016-12-10T02:36:12.907Z,0
2016-12-10T02:36:53.420Z,0
2016-12-10T02:37:33.906Z,0
2016-12-10T02:38:14.350Z,0
2016-12-10T02:38:54.879Z,0
2016-12-10T02:39:35.360Z,0
2016-12-10T02:40:15.826Z,0
2016-12-10T02:40:56.325Z,0
2016-12-10T02:41:36.813Z,0
2016-12-10T02:42:17.273Z,0
2016-12-10T02:42:57.727Z,0
2016-12-10T02:43:38.225Z,0
2016-12-10T02:44:18.718Z,0
2016-12-10T02:44:59.205Z,0
2016-12-10T02:45:39.687Z,0
2016-12-10T02:46:20.163Z,0
2016-12-10T02:47:00.627Z,0
2016-12-10T02:47:41.105Z,0
2016-12-10T02:48:21.591Z,0
2016-12-10T02:49:02.078Z,0
2016-12-10T02:49:42.563Z,0
2016-12-10T02:50:23.035Z,0
2016-12-10T02:51:03.499Z,0
2016-12-10T02:51:43.980Z,0
2016-12-10T02:52:24.480Z,0
2016-12-10T02:53:04.965Z,0
2016-12-10T02:53:45.426Z,0
2016-12-10T02:54:25.907Z,0
2016-12-10T02:55:06.409Z,0
2016-12-10T02:55:46.898Z,0
2016-12-10T02:56:27.366Z,0
2016-12-10T02:57:07.819Z,0
2016-12-10T02:57:48.324Z,0
2016-12-10T02:58:28.783Z,0
2016-12-10T02:59:09.251Z,0
2016-12-10T02:59:49.764Z,0
2016-12-10T03:00:30.198Z,0
2016-12-10T03:01:10.694Z,0
2016-12-10T03:01:51.180Z,0
2016-12-10T03:02:31.648Z,0
2016-12-10T03:03:12.130Z,0
2016-12-10T03:03:52.612Z,0
2016-12-10T03:04:33.113Z,0
2016-12-10T03:05:13.598Z,0
2016-12-10T03:05:54.072Z,0
2016-12-10T03:06:34.557Z,0
2016-12-10T03:07:15.019Z,0
2016-12-10T03:07:55.498Z,0
2016-12-10T03:08:35.981Z,0
2016-12-10T03:09:16.464Z,0
2016-12-10T03:09:56.946Z,0
2016-12-10T03:10:37.547Z,0
2016-12-10T03:11:18.009Z,0
2016-12-10T03:11:58.499Z,0
2016-12-10T03:12:38.994Z,0
2016-12-10T03:13:19.456Z,0
2016-12-10T03:13:59.950Z,0
2016-12-10T03:14:40.421Z,0
2016-12-10T03:15:20.916Z,0
2016-12-10T03:16:01.340Z,0
2016-12-10T03:16:41.801Z,0
2016-12-10T03:17:22.279Z,0
2016-12-10T03:18:02.757Z,0
2016-12-10T03:18:43.266Z,0
2016-12-10T03:19:23.743Z,0
2016-12-10T03:20:04.214Z,0
2016-12-10T03:20:44.720Z,0
2016-12-10T03:21:25.168Z,0
2016-12-10T03:22:05.652Z,0
2016-12-10T03:22:46.134Z,0
2016-12-10T03:23:26.609Z,0
2016-12-10T03:24:07.073Z,0
2016-12-10T03:24:47.546Z,0
2016-12-10T03:25:28.031Z,0
2016-12-10T03:26:08.517Z,0
2016-12-10T03:26:48.999Z,0
2016-12-10T03:27:29.494Z,0
2016-12-10T03:28:09.983Z,0
2016-12-10T03:28:50.432Z,0
2016-12-10T03:29:30.919Z,0
2016-12-10T03:30:11.353Z,0
2016-12-10T03:30:51.838Z,0
2016-12-10T03:31:32.286Z,0
2016-12-10T03:32:12.766Z,0
2016-12-10T03:32:53.229Z,0
2016-12-10T03:33:33.723Z,0
2016-12-10T03:34:14.153Z,0
2016-12-10T03:34:54.617Z,0
2016-12-10T03:35:35.100Z,0
2016-12-10T03:36:15.625Z,0
2016-12-10T03:36:56.094Z,0
2016-12-10T03:37:36.540Z,0
2016-12-10T03:38:16.973Z,0
2016-12-10T03:38:57.473Z,0
2016-12-10T03:39:37.967Z,0
2016-12-10T03:40:18.404Z,0
2016-12-10T03:40:58.874Z,0
2016-12-10T03:41:39.352Z,0
2016-12-10T03:42:19.842Z,0
2016-12-10T03:43:00.361Z,0
2016-12-10T03:43:40.839Z,0
2016-12-10T03:44:21.296Z,0
2016-12-10T03:45:01.800Z,0
2016-12-10T03:45:42.259Z,0
2016-12-10T03:46:22.743Z,0
2016-12-10T03:47:03.214Z,0
2016-12-10T03:47:43.735Z,0
2016-12-10T03:48:24.195Z,0
2016-12-10T03:49:04.681Z,0
2016-12-10T03:49:45.154Z,0
2016-12-10T03:50:25.618Z,0
2016-12-10T03:51:06.078Z,0
2016-12-10T03:51:46.555Z,0
2016-12-10T03:52:27.038Z,0
2016-12-10T03:53:07.568Z,0
2016-12-10T03:53:48.034Z,0
2016-12-10T03:54:28.501Z,0
2016-12-10T03:55:08.974Z,0
2016-12-10T03:55:49.421Z,0
2016-12-10T03:56:29.925Z,0
2016-12-10T03:57:10.393Z,0
2016-12-10T03:57:50.850Z,0
2016-12-10T03:58:31.318Z,0
2016-12-10T03:59:11.811Z,0
2016-12-10T03:59:52.278Z,0
2016-12-10T04:00:32.745Z,0
2016-12-10T04:01:13.252Z,0
2016-12-10T04:01:53.722Z,0
2016-12-10T04:02:34.167Z,0
2016-12-10T04:03:14.660Z,0
2016-12-10T04:03:55.154Z,0
2016-12-10T04:04:35.626Z,0
2016-12-10T04:05:16.117Z,0
2016-12-10T04:05:56.594Z,0
2016-12-10T04:06:37.056Z,0
2016-12-10T04:07:17.537Z,0
2016-12-10T04:07:57.968Z,0
2016-12-10T04:08:38.436Z,0
2016-12-10T04:09:18.925Z,0
2016-12-10T04:09:59.462Z,0
2016-12-10T04:10:39.981Z,0
2016-12-10T04:11:20.453Z,0
2016-12-10T04:12:00.932Z,0
2016-12-10T04:12:41.422Z,0
2016-12-10T04:13:21.915Z,0
2016-12-10T04:14:02.385Z,0
2016-12-10T04:14:42.874Z,0
2016-12-10T04:15:23.348Z,0
2016-12-10T04:16:03.803Z,0
2016-12-10T04:16:44.298Z,0
2016-12-10T04:17:24.758Z,0
2016-12-10T04:18:05.228Z,0
2016-12-10T04:18:45.719Z,0
2016-12-10T04:19:26.195Z,0
2016-12-10T04:20:06.651Z,0
2016-12-10T04:20:47.139Z,0
2016-12-10T04:21:27.594Z,0
2016-12-10T04:22:08.081Z,0
2016-12-10T04:22:48.564Z,0
2016-12-10T04:23:29.065Z,0
2016-12-10T04:24:09.535Z,0
2016-12-10T04:24:50.016Z,0
2016-12-10T04:25:30.495Z,0
2016-12-10T04:26:10.978Z,0
2016-12-10T04:26:51.443Z,0
2016-12-10T04:27:31.944Z,0
2016-12-10T04:28:12.450Z,0
2016-12-10T04:28:52.903Z,0
2016-12-10T04:29:33.413Z,0
2016-12-10T04:30:13.889Z,0
2016-12-10T04:30:54.376Z,0
2016-12-10T04:31:34.855Z,0
2016-12-10T04:32:15.316Z,0
2016-12-10T04:32:55.789Z,0
2016-12-10T04:33:36.272Z,0
2016-12-10T04:34:16.739Z,0
2016-12-10T04:34:57.208Z,0
2016-12-10T04:35:37.690Z,0
2016-12-10T04:36:18.178Z,0
2016-12-10T04:36:58.648Z,0
2016-12-10T04:37:39.143Z,0
2016-12-10T04:38:19.592Z,0
2016-12-10T04:39:00.095Z,0
2016-12-10T04:39:40.539Z,0
2016-12-10T04:40:21.005Z,0
2016-12-10T04:41:01.473Z,0
2016-12-10T04:41:41.920Z,0
2016-12-10T04:42:22.377Z,0
2016-12-10T04:43:02.852Z,0
2016-12-10T04:43:43.317Z,0
2016-12-10T04:44:23.800Z,0
2016-12-10T04:45:04.267Z,0
2016-12-10T04:45:44.742Z,0
2016-12-10T04:46:25.205Z,0
2016-12-10T04:47:05.687Z,0
2016-12-10T04:47:46.195Z,0
2016-12-10T04:48:26.673Z,0
2016-12-10T04:49:07.195Z,0
2016-12-10T04:49:47.717Z,0
2016-12-10T04:50:28.158Z,0
2016-12-10T04:51:08.628Z,0
2016-12-10T04:51:49.151Z,0
2016-12-10T04:52:29.622Z,0
2016-12-10T04:53:10.065Z,0
2016-12-10T04:53:50.521Z,0
2016-12-10T04:54:31.026Z,0
2016-12-10T04:55:11.500Z,0
2016-12-10T04:55:51.989Z,0
2016-12-10T04:56:32.470Z,0
2016-12-10T04:57:12.928Z,0
2016-12-10T04:57:53.390Z,0
2016-12-10T04:58:33.879Z,0
2016-12-10T04:59:14.341Z,0
2016-12-10T04:59:54.839Z,0
2016-12-10T05:00:35.316Z,0
2016-12-10T05:01:15.809Z,0
2016-12-10T05:01:56.310Z,0
2016-12-10T05:02:36.806Z,0
2016-12-10T05:03:17.259Z,0
2016-12-10T05:03:57.753Z,0
2016-12-10T05:04:38.201Z,0
2016-12-10T05:05:18.727Z,0
2016-12-10T05:05:59.232Z,0
2016-12-10T05:06:39.706Z,0
2016-12-10T05:07:20.189Z,0
2016-12-10T05:08:00.661Z,0
2016-12-10T05:08:41.151Z,0
2016-12-10T05:09:21.639Z,0
2016-12-10T05:10:02.125Z,0
2016-12-10T05:10:42.569Z,0
2016-12-10T05:11:23.054Z,0
2016-12-10T05:12:03.553Z,0
2016-12-10T05:12:44.019Z,0
2016-12-10T05:13:24.467Z,0
2016-12-10T05:14:04.935Z,0
2016-12-10T05:14:45.448Z,0
2016-12-10T05:15:25.904Z,0
2016-12-10T05:16:06.387Z,0
2016-12-10T05:16:46.890Z,0
2016-12-10T05:17:27.363Z,0
2016-12-10T05:18:07.938Z,0
2016-12-10T05:18:48.415Z,0
2016-12-10T05:19:28.886Z,0
2016-12-10T05:20:09.414Z,0
2016-12-10T05:20:49.906Z,0
2016-12-10T05:21:30.344Z,0
2016-12-10T05:22:10.819Z,0
2016-12-10T05:22:51.279Z,0
2016-12-10T05:23:31.755Z,0
2016-12-10T05:24:12.251Z,0
2016-12-10T05:24:52.744Z,0
2016-12-10T05:25:33.207Z,0
2016-12-10T05:26:13.667Z,0
2016-12-10T05:26:54.132Z,0
2016-12-10T05:27:34.580Z,0
2016-12-10T05:28:15.075Z,0
2016-12-10T05:28:55.550Z,0
2016-12-10T05:29:36.026Z,0
2016-12-10T05:30:16.492Z,0
2016-12-10T05:30:56.975Z,0
2016-12-10T05:31:37.474Z,0
2016-12-10T05:32:17.949Z,0
2016-12-10T05:32:58.434Z,0
2016-12-10T05:33:38.866Z,0
2016-12-10T05:34:19.382Z,0
2016-12-10T05:34:59.895Z,0
2016-12-10T05:35:40.374Z,0
2016-12-10T05:36:20.810Z,0
2016-12-10T05:37:01.286Z,0
2016-12-10T05:37:41.765Z,0
2016-12-10T05:38:22.268Z,0
2016-12-10T05:39:02.763Z,0
2016-12-10T05:39:43.241Z,0
2016-12-10T05:40:23.724Z,0
2016-12-10T05:41:04.184Z,0
2016-12-10T05:41:44.689Z,0
2016-12-10T05:42:25.247Z,0
2016-12-10T05:43:05.697Z,0
2016-12-10T05:43:46.175Z,0
2016-12-10T05:44:26.662Z,0
2016-12-10T05:45:07.134Z,0
2016-12-10T05:45:47.650Z,0
2016-12-10T05:46:28.097Z,0
2016-12-10T05:47:08.558Z,0
2016-12-10T05:47:49.043Z,0
2016-12-10T05:48:29.508Z,0
2016-12-10T05:49:09.968Z,0
2016-12-10T05:49:50.506Z,0
2016-12-10T05:50:30.955Z,0
2016-12-10T05:51:11.467Z,0
2016-12-10T05:51:51.920Z,0
2016-12-10T05:52:32.414Z,0
2016-12-10T05:53:12.901Z,0
2016-12-10T05:53:53.361Z,0
2016-12-10T05:54:33.831Z,0
2016-12-10T05:55:14.327Z,0
2016-12-10T05:55:54.794Z,0
2016-12-10T05:56:35.240Z,0
2016-12-10T05:57:15.712Z,0
2016-12-10T05:57:56.181Z,0
2016-12-10T05:58:36.659Z,0
2016-12-10T05:59:17.128Z,0
2016-12-10T05:59:57.602Z,0
2016-12-10T06:00:38.076Z,0
2016-12-10T06:01:18.553Z,0
2016-12-10T06:01:59.013Z,0
2016-12-10T06:02:39.612Z,0
2016-12-10T06:03:19.988Z,0
2016-12-10T06:04:00.483Z,0
2016-12-10T06:04:40.980Z,0
2016-12-10T06:05:21.472Z,0
2016-12-10T06:06:01.948Z,0
2016-12-10T06:06:42.402Z,0
2016-12-10T06:07:22.885Z,0
2016-12-10T06:08:03.396Z,0
2016-12-10T06:08:43.879Z,0
2016-12-10T06:09:24.331Z,0
2016-12-10T06:10:04.812Z,0
2016-12-10T06:10:45.283Z,0
2016-12-10T06:11:25.792Z,0
2016-12-10T06:12:06.213Z,0
2016-12-10T06:12:46.689Z,0
2016-12-10T06:13:27.170Z,0
2016-12-10T06:14:07.638Z,0
2016-12-10T06:14:48.147Z,0
2016-12-10T06:15:28.608Z,0
2016-12-10T06:16:09.093Z,0
2016-12-10T06:16:49.562Z,0
2016-12-10T06:17:30.032Z,0
2016-12-10T06:18:10.546Z,0
2016-12-10T06:18:51.013Z,0
2016-12-10T06:19:31.503Z,0
2016-12-10T06:20:12.016Z,0
2016-12-10T06:20:52.490Z,0
2016-12-10T06:21:32.994Z,0
2016-12-10T06:22:13.472Z,0
2016-12-10T06:22:53.955Z,0
2016-12-10T06:23:34.401Z,0
2016-12-10T06:24:14.916Z,0
2016-12-10T06:24:55.384Z,0
2016-12-10T06:25:35.857Z,0
2016-12-10T06:26:16.335Z,0
2016-12-10T06:26:56.799Z,0
2016-12-10T06:27:37.302Z,0
2016-12-10T06:28:17.777Z,0
2016-12-10T06:28:58.282Z,0
2016-12-10T06:29:38.750Z,0
2016-12-10T06:30:19.211Z,0
2016-12-10T06:30:59.707Z,0
2016-12-10T06:31:40.165Z,0
2016-12-10T06:32:20.683Z,0
2016-12-10T06:33:01.151Z,0
2016-12-10T06:33:41.621Z,0
2016-12-10T06:34:22.088Z,0
2016-12-10T06:35:02.590Z,0
2016-12-10T06:35:43.052Z,0
2016-12-10T06:36:23.531Z,0
2016-12-10T06:37:04.010Z,0
2016-12-10T06:37:44.479Z,0
2016-12-10T06:38:24.980Z,0
2016-12-10T06:39:05.486Z,0
2016-12-10T06:39:45.950Z,0
2016-12-10T06:40:26.415Z,0
2016-12-10T06:41:06.914Z,0
2016-12-10T06:41:47.376Z,0
2016-12-10T06:42:27.876Z,0
2016-12-10T06:43:08.329Z,0
2016-12-10T06:43:48.819Z,0
2016-12-10T06:44:29.299Z,0
2016-12-10T06:45:09.759Z,0
2016-12-10T06:45:50.259Z,0
2016-12-10T06:46:30.750Z,0
2016-12-10T06:47:11.209Z,0
2016-12-10T06:47:51.676Z,0
2016-12-10T06:48:32.155Z,0
2016-12-10T06:49:12.654Z,0
2016-12-10T06:49:53.135Z,0
2016-12-10T06:50:33.586Z,0
2016-12-10T06:51:14.053Z,0
2016-12-10T06:51:54.509Z,0
2016-12-10T06:52:35.011Z,0
2016-12-10T06:53:15.487Z,0
2016-12-10T06:53:55.929Z,0
2016-12-10T06:54:36.387Z,0
2016-12-10T06:55:16.859Z,0
2016-12-10T06:55:57.364Z,0
2016-12-10T06:56:37.826Z,0
2016-12-10T06:57:18.332Z,0
2016-12-10T06:57:58.817Z,0
2016-12-10T06:58:39.298Z,0
2016-12-10T06:59:19.774Z,0
2016-12-10T07:00:00.252Z,0
2016-12-10T07:00:40.711Z,0
2016-12-10T07:01:21.172Z,0
2016-12-10T07:02:01.657Z,0
2016-12-10T07:02:42.116Z,0
2016-12-10T07:03:22.597Z,0
2016-12-10T07:04:03.083Z,0
2016-12-10T07:04:43.512Z,0
2016-12-10T07:05:23.981Z,0
2016-12-10T07:06:04.463Z,0
2016-12-10T07:06:44.945Z,0
2016-12-10T07:07:25.407Z,0
2016-12-10T07:08:05.888Z,0
2016-12-10T07:08:46.376Z,0
2016-12-10T07:09:26.861Z,0
2016-12-10T07:10:07.365Z,0
2016-12-10T07:10:47.860Z,0
2016-12-10T07:11:28.308Z,0
2016-12-10T07:12:08.794Z,0
2016-12-10T07:12:49.271Z,0
2016-12-10T07:13:29.748Z,0
2016-12-10T07:14:10.268Z,0
2016-12-10T07:14:50.754Z,0
2016-12-10T07:15:31.214Z,0
2016-12-10T07:16:11.701Z,0
2016-12-10T07:16:52.188Z,0
2016-12-10T07:17:32.685Z,0
2016-12-10T07:18:13.168Z,0
2016-12-10T07:18:53.628Z,0
2016-12-10T07:19:34.130Z,0
2016-12-10T07:20:14.612Z,0
2016-12-10T07:20:55.088Z,0
2016-12-10T07:21:35.567Z,0
2016-12-10T07:22:16.068Z,0
2016-12-10T07:22:56.518Z,0
2016-12-10T07:23:36.972Z,0
2016-12-10T07:24:17.445Z,0
2016-12-10T07:24:57.942Z,0
2016-12-10T07:25:38.412Z,0
2016-12-10T07:26:18.884Z,0
2016-12-10T07:26:59.404Z,0
2016-12-10T07:27:39.878Z,0
2016-12-10T07:28:20.354Z,0
2016-12-10T07:29:00.861Z,0
2016-12-10T07:29:41.313Z,0
2016-12-10T07:30:21.838Z,0
2016-12-10T07:31:02.322Z,0
2016-12-10T07:31:42.790Z,0
2016-12-10T07:32:23.260Z,0
2016-12-10T07:33:03.766Z,0
2016-12-10T07:33:44.263Z,0
2016-12-10T07:34:24.744Z,0
2016-12-10T07:35:05.227Z,0
2016-12-10T07:35:45.651Z,0
2016-12-10T07:36:26.122Z,0
2016-12-10T07:37:06.586Z,0
2016-12-10T07:37:47.095Z,0
2016-12-10T07:38:27.544Z,0
2016-12-10T07:39:08.059Z,0
2016-12-10T07:39:48.530Z,0
2016-12-10T07:40:29.039Z,0
2016-12-10T07:41:09.836Z,0
2016-12-10T07:41:52.653Z,0
2016-12-10T07:42:34.561Z,0
2016-12-10T07:43:15.150Z,0
2016-12-10T07:43:55.697Z,0
2016-12-10T07:44:36.183Z,0
2016-12-10T07:45:17.075Z,0
2016-12-10T07:45:57.573Z,0
2016-12-10T07:46:38.315Z,0
2016-12-10T07:47:19.534Z,0
2016-12-10T07:48:00.051Z,0
2016-12-10T07:48:40.529Z,0
2016-12-10T07:49:21.057Z,0
2016-12-10T07:50:01.521Z,0
2016-12-10T07:50:42.280Z,0
2016-12-10T07:51:22.841Z,0
2016-12-10T07:52:03.415Z,0
2016-12-10T07:52:43.955Z,0
2016-12-10T07:53:24.482Z,0
2016-12-10T07:54:04.932Z,0
2016-12-10T07:54:45.416Z,0
2016-12-10T07:55:27.100Z,0
2016-12-10T07:56:07.572Z,0
2016-12-10T07:56:48.073Z,0
2016-12-10T07:57:28.720Z,0
2016-12-10T07:58:09.130Z,0
2016-12-10T07:58:49.856Z,0
2016-12-10T07:59:30.298Z,0
2016-12-10T08:00:10.783Z,0
2016-12-10T08:00:51.283Z,0
2016-12-10T08:01:31.835Z,0
2016-12-10T08:06:01.947Z,0
2016-12-10T08:06:43.849Z,0
2016-12-10T08:07:24.322Z,5
2016-12-10T08:08:04.806Z,5
2016-12-10T08:08:45.276Z,5
2016-12-10T08:09:25.754Z,5
2016-12-10T08:10:06.242Z,5
2016-12-10T08:10:46.716Z,5
2016-12-10T08:11:27.168Z,5
2016-12-10T08:12:07.676Z,5
2016-12-10T08:12:48.163Z,5
2016-12-10T08:13:28.607Z,5
2016-12-10T08:14:09.094Z,5
2016-12-10T08:14:49.594Z,5
2016-12-10T08:15:30.025Z,5
2016-12-10T08:16:10.540Z,5
2016-12-10T08:16:51.048Z,10
2016-12-10T08:17:31.585Z,10
2016-12-10T08:18:12.044Z,10
2016-12-10T08:18:52.498Z,10
2016-12-10T08:19:33.050Z,10
2016-12-10T08:20:13.531Z,10
2016-12-10T08:20:54.008Z,10
2016-12-10T08:21:34.943Z,10
2016-12-10T08:22:16.945Z,10
2016-12-10T08:25:59.504Z,15
2016-12-10T08:26:40.269Z,15
2016-12-10T08:27:20.771Z,10
2016-12-10T08:28:01.301Z,10
2016-12-10T08:28:41.893Z,10
2016-12-10T08:29:22.722Z,10
2016-12-10T08:30:03.147Z,10
2016-12-10T08:30:43.739Z,10
2016-12-10T08:31:24.260Z,10
2016-12-10T08:32:04.821Z,15
2016-12-10T08:32:45.315Z,15
2016-12-10T08:33:25.875Z,15
2016-12-10T08:34:07.117Z,20
2016-12-10T08:34:47.608Z,20
2016-12-10T08:35:28.085Z,20
2016-12-10T08:36:08.573Z,20
2016-12-10T08:36:49.243Z,20
2016-12-10T08:37:29.721Z,15
2016-12-10T08:38:10.349Z,15
2016-12-10T08:38:51.749Z,20
2016-12-10T08:39:32.238Z,20
2016-12-10T08:40:13.690Z,20
2016-12-10T08:40:54.200Z,20
2016-12-10T08:41:34.666Z,20
2016-12-10T08:42:15.166Z,20
2016-12-10T08:42:55.624Z,20
2016-12-10T08:43:36.110Z,25
2016-12-10T08:44:16.645Z,25
2016-12-10T08:44:57.137Z,25
2016-12-10T08:45:37.628Z,25
2016-12-10T08:46:18.120Z,25
2016-12-10T08:46:58.619Z,25
2016-12-10T08:47:39.083Z,30
2016-12-10T08:48:19.966Z,30
2016-12-10T08:49:00.432Z,30
2016-12-10T08:49:40.931Z,35
2016-12-10T08:50:21.387Z,35
2016-12-10T08:51:01.857Z,40
2016-12-10T08:51:42.324Z,35
2016-12-10T08:52:22.881Z,40
2016-12-10T08:53:03.320Z,40
2016-12-10T08:53:43.802Z,35
2016-12-10T08:54:24.252Z,40
2016-12-10T08:55:04.729Z,40
2016-12-10T08:55:45.244Z,40
2016-12-10T08:56:25.745Z,35
2016-12-10T08:57:06.238Z,40
2016-12-10T08:57:46.710Z,35
2016-12-10T08:58:27.208Z,40
2016-12-10T08:59:07.724Z,40
2016-12-10T08:59:48.191Z,45
2016-12-10T09:00:28.639Z,45
2016-12-10T09:01:09.120Z,40
2016-12-10T09:01:49.606Z,40
2016-12-10T09:02:30.073Z,35
2016-12-10T09:03:10.542Z,35
2016-12-10T09:03:51.014Z,30
2016-12-10T09:04:31.494Z,35
2016-12-10T09:05:11.991Z,40
2016-12-10T09:05:52.454Z,40
2016-12-10T09:06:32.950Z,45
2016-12-10T09:07:13.405Z,45
2016-12-10T09:07:53.874Z,40
2016-12-10T09:08:34.354Z,35
2016-12-10T09:09:15.145Z,30
2016-12-10T09:09:55.632Z,35
2016-12-10T09:10:36.122Z,40
2016-12-10T09:11:16.609Z,45
2016-12-10T09:11:58.722Z,50
2016-12-10T09:12:39.239Z,60
2016-12-10T09:13:19.739Z,65
2016-12-10T09:14:00.199Z,55
2016-12-10T09:14:40.692Z,60
2016-12-10T09:15:22.091Z,60
2016-12-10T09:16:02.588Z,70
2016-12-10T09:16:43.075Z,70
2016-12-10T09:17:23.519Z,75
2016-12-10T09:18:03.987Z,75
2016-12-10T09:18:44.458Z,75
2016-12-10T09:19:24.953Z,75
2016-12-10T09:20:05.411Z,75
2016-12-10T09:20:45.902Z,75
2016-12-10T09:21:26.401Z,80
2016-12-10T09:22:06.897Z,80
2016-12-10T09:22:47.357Z,80
2016-12-10T09:23:27.944Z,75
2016-12-10T09:24:08.432Z,75
2016-12-10T09:24:48.903Z,75
2016-12-10T09:25:29.372Z,80
2016-12-10T09:26:09.870Z,75
2016-12-10T09:26:50.331Z,70
2016-12-10T09:27:30.921Z,70
2016-12-10T09:28:11.370Z,70
2016-12-10T09:28:51.832Z,60
2016-12-10T09:29:32.315Z,60
2016-12-10T09:30:12.847Z,60
2016-12-10T09:30:53.333Z,65
2016-12-10T09:31:33.813Z,65
2016-12-10T09:32:14.289Z,65
2016-12-10T09:32:54.761Z,65
2016-12-10T09:33:35.234Z,65
2016-12-10T09:34:15.712Z,60
2016-12-10T09:34:56.178Z,60
2016-12-10T09:35:36.671Z,65
2016-12-10T09:36:17.144Z,65
2016-12-10T09:36:57.679Z,70
2016-12-10T09:37:38.155Z,65
2016-12-10T09:38:18.645Z,65
2016-12-10T09:38:59.114Z,70
2016-12-10T09:39:39.572Z,70
2016-12-10T09:40:20.053Z,70
2016-12-10T09:41:00.526Z,70
2016-12-10T09:41:41.034Z,75
2016-12-10T09:42:21.510Z,75
2016-12-10T09:43:01.997Z,80
2016-12-10T09:43:42.498Z,80
2016-12-10T09:44:23.234Z,70
2016-12-10T09:45:03.682Z,85
2016-12-10T09:45:44.190Z,85
2016-12-10T09:46:24.671Z,85
2016-12-10T09:47:05.176Z,90
2016-12-10T09:47:45.646Z,90
2016-12-10T09:48:26.111Z,95
2016-12-10T09:49:06.642Z,95
2016-12-10T09:49:47.107Z,95
2016-12-10T09:50:27.578Z,105
2016-12-10T09:51:08.066Z,115
2016-12-10T09:51:48.522Z,110
2016-12-10T09:52:28.990Z,115
2016-12-10T09:53:09.512Z,105
2016-12-10T09:53:49.948Z,115
2016-12-10T09:54:30.432Z,120
2016-12-10T09:55:10.900Z,110
2016-12-10T09:55:51.393Z,115
2016-12-10T09:56:31.993Z,110
2016-12-10T09:57:12.485Z,105
2016-12-10T09:57:52.997Z,115
2016-12-10T09:58:33.465Z,110
2016-12-10T09:59:13.935Z,105
2016-12-10T09:59:54.390Z,110
2016-12-10T10:00:34.987Z,95
2016-12-10T10:01:15.429Z,100
2016-12-10T10:01:55.939Z,105